createdAt,value
2019-02-21T00:01:33.809Z,18.10
2019-02-21T00:04:02.895Z,18.20
2019-02-21T00:06:31.979Z,17.67
2019-02-21T00:09:01.060Z,17.20
2019-02-21T00:11:30.103Z,18.83
2019-02-21T00:13:59.084Z,23.20
2019-02-21T00:16:28.157Z,13.77
2019-02-21T00:18:57.240Z,15.80
2019-02-21T00:21:26.317Z,20.87
2019-02-21T00:23:55.391Z,19.00
2019-02-21T00:26:24.399Z,21.73
2019-02-21T00:28:53.452Z,27.17
2019-02-21T00:31:22.423Z,12.93
2019-02-21T00:33:51.519Z,10.53
2019-02-21T00:36:20.533Z,18.63
2019-02-21T00:38:49.609Z,10.70
2019-02-21T00:41:18.715Z,16.17
2019-02-21T00:43:47.782Z,16.20
2019-02-21T00:46:16.821Z,22.27
2019-02-21T00:48:45.783Z,14.70
2019-02-21T00:51:16.058Z,17.87
2019-02-21T00:53:45.067Z,16.30
2019-02-21T00:56:14.082Z,18.23
2019-02-21T00:58:43.073Z,14.70
2019-02-21T01:01:12.124Z,12.73
2019-02-21T01:03:41.183Z,17.87
2019-02-21T01:06:10.270Z,21.57
2019-02-21T01:08:39.263Z,21.23
2019-02-21T01:11:09.087Z,14.13
2019-02-21T01:13:38.107Z,16.27
2019-02-21T01:16:07.148Z,12.23
2019-02-21T01:18:36.058Z,23.40
2019-02-21T01:21:05.118Z,19.00
2019-02-21T01:23:34.114Z,15.53
2019-02-21T01:26:03.137Z,22.80
2019-02-21T01:28:32.211Z,21.23
2019-02-21T01:31:01.206Z,19.23
2019-02-21T01:33:30.278Z,26.07
2019-02-21T01:35:59.143Z,25.77
2019-02-21T01:38:28.188Z,23.33
2019-02-21T01:40:57.248Z,20.73
2019-02-21T01:43:26.315Z,13.23
2019-02-21T01:45:55.383Z,14.63
2019-02-21T01:48:24.386Z,20.80
2019-02-21T01:50:53.363Z,16.07
2019-02-21T01:53:22.430Z,23.70
2019-02-21T01:55:51.443Z,24.00
2019-02-21T01:58:20.437Z,24.57
2019-02-21T02:00:49.532Z,19.40
2019-02-21T02:03:18.546Z,20.27
2019-02-21T02:05:47.597Z,21.93
2019-02-21T02:08:16.634Z,22.73
2019-02-21T02:10:45.596Z,23.57
2019-02-21T02:13:24.002Z,24.00
2019-02-21T02:15:45.387Z,25.00
2019-02-21T02:18:14.487Z,27.07
2019-02-21T02:20:43.418Z,20.17
2019-02-21T02:23:12.477Z,22.83
2019-02-21T02:25:41.542Z,30.37
2019-02-21T02:28:10.626Z,24.90
2019-02-21T02:30:39.683Z,24.80
2019-02-21T02:33:08.765Z,25.43
2019-02-21T02:35:37.785Z,24.67
2019-02-21T02:38:06.941Z,31.57
2019-02-21T02:40:36.023Z,33.40
2019-02-21T02:43:05.063Z,30.73
2019-02-21T02:45:34.129Z,24.70
2019-02-21T02:48:03.227Z,30.37
2019-02-21T02:50:32.293Z,40.73
2019-02-21T02:53:01.416Z,26.17
2019-02-21T02:55:30.501Z,28.03
2019-02-21T02:57:59.534Z,27.00
2019-02-21T03:00:28.542Z,25.90
2019-02-21T03:02:57.539Z,22.50
2019-02-21T03:05:26.550Z,39.50
2019-02-21T03:07:55.628Z,32.20
2019-02-21T03:10:24.516Z,30.03
2019-02-21T03:12:53.589Z,32.77
2019-02-21T03:15:22.659Z,29.43
2019-02-21T03:17:51.560Z,28.43
2019-02-21T03:20:20.645Z,31.97
2019-02-21T03:22:49.724Z,27.43
2019-02-21T03:25:18.791Z,33.10
2019-02-21T03:27:47.828Z,30.50
2019-02-21T03:30:16.995Z,27.97
2019-02-21T03:32:46.009Z,27.33
2019-02-21T03:35:15.136Z,22.93
2019-02-21T03:37:44.164Z,29.13
2019-02-21T03:40:13.347Z,25.77
2019-02-21T03:42:42.368Z,27.83
2019-02-21T03:45:12.107Z,25.60
2019-02-21T03:47:41.124Z,23.87
2019-02-21T03:50:10.902Z,23.40
2019-02-21T03:52:39.962Z,24.43
2019-02-21T03:55:09.690Z,22.50
2019-02-21T03:57:38.817Z,23.30
2019-02-21T04:00:08.497Z,24.53
2019-02-21T04:02:37.628Z,25.80
2019-02-21T04:05:06.829Z,28.63
2019-02-21T04:07:35.864Z,30.83
2019-02-21T04:10:05.372Z,21.50
2019-02-21T04:12:34.474Z,26.90
2019-02-21T04:15:04.331Z,28.57
2019-02-21T04:17:33.503Z,20.33
2019-02-21T04:20:02.567Z,27.37
2019-02-21T04:22:31.479Z,27.03
2019-02-21T04:25:00.507Z,29.33
2019-02-21T04:27:29.525Z,23.83
2019-02-21T04:29:58.548Z,28.27
2019-02-21T04:32:27.618Z,30.67
2019-02-21T04:34:56.671Z,31.73
2019-02-21T04:37:25.578Z,22.47
2019-02-21T04:39:54.654Z,26.63
2019-02-21T04:42:23.676Z,27.67
2019-02-21T04:44:52.777Z,28.03
2019-02-21T04:47:21.856Z,32.67
2019-02-21T04:49:50.817Z,28.30
2019-02-21T04:52:19.944Z,24.37
2019-02-21T04:54:49.116Z,30.70
2019-02-21T04:57:18.125Z,29.87
2019-02-21T04:59:47.159Z,34.00
2019-02-21T05:02:27.985Z,32.20
2019-02-21T05:04:46.956Z,26.13
2019-02-21T05:07:15.919Z,26.47
2019-02-21T05:09:57.038Z,25.90
2019-02-21T05:12:15.788Z,25.77
2019-02-21T05:14:44.792Z,34.27
2019-02-21T05:17:13.868Z,28.20
2019-02-21T05:19:42.875Z,31.57
2019-02-21T05:22:20.995Z,26.70
2019-02-21T05:24:49.984Z,31.40
2019-02-21T05:27:23.101Z,33.63
2019-02-21T05:29:52.077Z,33.90
2019-02-21T05:32:41.066Z,27.87
2019-02-21T05:35:42.775Z,26.17
2019-02-21T05:38:32.697Z,34.23
2019-02-21T05:41:27.730Z,33.87
2019-02-21T05:44:18.612Z,33.10
2019-02-21T05:46:52.898Z,35.90
2019-02-21T05:49:27.650Z,33.93
2019-02-21T05:52:11.096Z,31.40
2019-02-21T05:54:54.976Z,35.70
2019-02-21T05:57:45.379Z,31.67
2019-02-21T06:00:42.708Z,29.83
2019-02-21T06:03:29.751Z,27.33
2019-02-21T06:06:17.879Z,33.83
2019-02-21T06:09:06.202Z,31.10
2019-02-21T06:11:54.247Z,30.83
2019-02-21T06:14:41.248Z,32.03
2019-02-21T06:17:28.019Z,37.50
2019-02-21T06:20:14.408Z,33.10
2019-02-21T06:22:52.140Z,36.20
2019-02-21T06:25:29.735Z,33.80
2019-02-21T06:28:04.857Z,32.87
2019-02-21T06:30:43.218Z,36.70
2019-02-21T06:33:11.198Z,38.27
2019-02-21T06:35:40.284Z,40.50
2019-02-21T06:38:09.372Z,39.40
2019-02-21T06:40:38.440Z,33.23
2019-02-21T06:43:07.516Z,37.73
2019-02-21T06:45:36.579Z,39.00
2019-02-21T06:48:05.723Z,39.97
2019-02-21T06:50:34.777Z,45.73
2019-02-21T06:53:03.887Z,41.53
2019-02-21T06:55:32.961Z,37.37
2019-02-21T06:58:01.974Z,27.27
2019-02-21T07:00:31.025Z,41.97
2019-02-21T07:03:00.112Z,37.97
2019-02-21T07:05:29.172Z,39.00
2019-02-21T07:07:58.468Z,41.47
2019-02-21T07:10:27.572Z,43.20
2019-02-21T07:12:56.546Z,41.00
2019-02-21T07:15:25.589Z,41.30
2019-02-21T07:17:54.573Z,35.03
2019-02-21T07:20:23.587Z,35.87
2019-02-21T07:22:52.752Z,48.37
2019-02-21T07:25:35.636Z,47.87
2019-02-21T07:28:11.790Z,48.80
2019-02-21T07:30:35.447Z,50.80
2019-02-21T07:33:04.525Z,56.60
2019-02-21T07:35:34.040Z,52.13
2019-02-21T07:38:02.972Z,45.27
2019-02-21T07:40:32.681Z,42.43
2019-02-21T07:43:01.884Z,37.30
2019-02-21T07:45:30.928Z,52.13
2019-02-21T07:48:00.002Z,44.13
2019-02-21T07:50:29.052Z,52.43
2019-02-21T07:53:02.390Z,44.80
2019-02-21T07:55:28.759Z,44.30
2019-02-21T07:57:57.756Z,48.57
2019-02-21T08:00:26.857Z,40.23
2019-02-21T08:02:55.835Z,45.17
2019-02-21T08:05:24.918Z,50.10
2019-02-21T08:07:54.198Z,40.73
2019-02-21T08:10:33.057Z,44.37
2019-02-21T08:12:54.057Z,48.37
2019-02-21T08:15:23.326Z,44.20
2019-02-21T08:17:52.509Z,50.67
2019-02-21T08:20:21.508Z,41.40
2019-02-21T08:22:50.951Z,49.27
2019-02-21T08:25:19.980Z,42.93
2019-02-21T08:27:49.486Z,52.33
2019-02-21T08:30:18.579Z,44.83
2019-02-21T08:33:05.591Z,58.33
2019-02-21T08:35:34.750Z,49.27
2019-02-21T08:38:03.763Z,50.20
2019-02-21T08:40:32.744Z,50.33
2019-02-21T08:43:03.956Z,45.13
2019-02-21T08:45:32.435Z,47.63
2019-02-21T08:48:01.424Z,50.57
2019-02-21T08:50:30.551Z,43.20
2019-02-21T08:53:01.133Z,44.77
2019-02-21T08:55:30.431Z,48.10
2019-02-21T08:57:59.411Z,42.20
2019-02-21T09:00:28.519Z,48.37
2019-02-21T09:02:57.614Z,41.73
2019-02-21T09:05:26.708Z,46.20
2019-02-21T09:07:55.819Z,48.80
2019-02-21T09:10:27.467Z,49.73
2019-02-21T09:12:55.760Z,41.60
2019-02-21T09:15:25.539Z,49.30
2019-02-21T09:17:54.684Z,50.50
2019-02-21T09:20:24.043Z,47.13
2019-02-21T09:22:53.035Z,50.47
2019-02-21T09:25:22.097Z,49.87
2019-02-21T09:27:51.124Z,55.77
2019-02-21T09:30:20.223Z,58.37
2019-02-21T09:32:49.271Z,58.03
2019-02-21T09:35:18.316Z,46.30
2019-02-21T09:37:47.387Z,55.27
2019-02-21T09:40:16.483Z,65.80
2019-02-21T09:42:45.470Z,66.90
2019-02-21T09:45:16.528Z,68.07
2019-02-21T09:47:45.649Z,80.50
2019-02-21T09:50:15.096Z,70.90
2019-02-21T09:52:44.272Z,96.97
2019-02-21T09:55:14.294Z,64.40
2019-02-21T09:57:43.407Z,77.83
2019-02-21T10:00:14.871Z,77.70
2019-02-21T10:02:44.003Z,95.93
2019-02-21T10:05:13.044Z,78.67
2019-02-21T10:07:42.161Z,85.30
2019-02-21T10:10:13.729Z,109.93
2019-02-21T10:12:42.929Z,124.20
2019-02-21T10:15:12.463Z,165.20
2019-02-21T10:17:41.535Z,138.73
2019-02-21T10:20:13.516Z,145.60
2019-02-21T10:22:42.544Z,153.57
2019-02-21T10:25:15.196Z,131.30
2019-02-21T10:27:44.295Z,115.70
2019-02-21T10:30:14.319Z,124.77
2019-02-21T10:32:43.419Z,118.17
2019-02-21T10:35:12.564Z,95.93
2019-02-21T10:37:41.695Z,117.47
2019-02-21T10:40:11.536Z,93.97
2019-02-21T10:42:40.635Z,94.90
2019-02-21T10:45:15.146Z,79.77
2019-02-21T10:47:44.252Z,74.60
2019-02-21T10:50:15.550Z,75.50
2019-02-21T10:52:44.653Z,72.70
2019-02-21T10:55:13.977Z,79.63
2019-02-21T10:57:45.339Z,68.87
2019-02-21T11:00:22.322Z,70.37
2019-02-21T11:02:51.363Z,57.83
2019-02-21T11:05:20.395Z,58.27
2019-02-21T11:07:49.439Z,59.30
2019-02-21T11:10:21.834Z,54.47
2019-02-21T11:12:50.943Z,62.27
2019-02-21T11:15:21.080Z,60.33
2019-02-21T11:17:50.402Z,57.60
2019-02-21T11:20:19.507Z,58.13
2019-02-21T11:22:48.597Z,49.77
2019-02-21T11:25:17.727Z,56.83
2019-02-21T11:27:46.868Z,58.57
2019-02-21T11:30:17.384Z,59.03
2019-02-21T11:32:46.527Z,44.13
2019-02-21T11:35:15.625Z,51.63
2019-02-21T11:37:47.074Z,53.20
2019-02-21T11:40:15.972Z,50.50
2019-02-21T11:42:45.161Z,50.97
2019-02-21T11:45:15.508Z,42.23
2019-02-21T11:47:44.591Z,47.60
2019-02-21T11:50:15.137Z,50.40
2019-02-21T11:52:44.284Z,48.67
2019-02-21T11:55:15.935Z,42.50
2019-02-21T11:57:45.068Z,50.27
2019-02-21T12:00:17.434Z,47.17
2019-02-21T12:02:46.547Z,43.17
2019-02-21T12:05:17.817Z,51.50
2019-02-21T12:07:46.436Z,53.03
2019-02-21T12:10:15.487Z,46.73
2019-02-21T12:12:44.623Z,45.50
2019-02-21T12:15:13.708Z,54.33
2019-02-21T12:17:43.289Z,52.37
2019-02-21T12:20:13.395Z,47.37
2019-02-21T12:22:42.589Z,52.50
2019-02-21T12:25:12.887Z,50.93
2019-02-21T12:27:41.884Z,53.07
2019-02-21T12:30:13.826Z,60.80
2019-02-21T12:32:42.939Z,54.07
2019-02-21T12:35:11.989Z,56.73
2019-02-21T12:37:40.985Z,59.47
2019-02-21T12:40:12.025Z,62.83
2019-02-21T12:42:41.138Z,53.17
2019-02-21T12:45:12.329Z,63.13
2019-02-21T12:47:49.605Z,50.87
2019-02-21T12:50:12.416Z,58.27
2019-02-21T12:52:41.500Z,59.97
2019-02-21T12:55:10.606Z,57.50
2019-02-21T12:57:39.592Z,64.33
2019-02-21T13:00:12.193Z,54.03
2019-02-21T13:02:41.261Z,67.30
2019-02-21T13:05:10.347Z,66.17
2019-02-21T13:07:40.163Z,60.27
2019-02-21T13:10:11.675Z,58.73
2019-02-21T13:12:40.747Z,60.37
2019-02-21T13:15:11.857Z,75.30
2019-02-21T13:17:41.031Z,71.30
2019-02-21T13:20:10.686Z,72.17
2019-02-21T13:22:40.015Z,65.07
2019-02-21T13:25:10.347Z,69.80
2019-02-21T13:27:39.439Z,73.30
2019-02-21T13:30:11.476Z,67.90
2019-02-21T13:32:40.556Z,72.17
2019-02-21T13:35:10.208Z,70.50
2019-02-21T13:37:39.449Z,70.47
2019-02-21T13:40:10.166Z,60.97
2019-02-21T13:42:39.224Z,73.73
2019-02-21T13:45:08.847Z,67.03
2019-02-21T13:47:39.280Z,55.20
2019-02-21T13:50:11.133Z,62.20
2019-02-21T13:52:40.266Z,73.93
2019-02-21T13:55:09.915Z,90.17
2019-02-21T13:57:38.973Z,74.90
2019-02-21T14:00:11.449Z,75.87
2019-02-21T14:02:40.710Z,77.10
2019-02-21T14:05:15.577Z,87.80
2019-02-21T14:08:07.595Z,82.47
2019-02-21T14:11:06.001Z,83.07
2019-02-21T14:13:43.267Z,84.53
2019-02-21T14:16:18.485Z,86.33
2019-02-21T14:18:47.691Z,63.57
2019-02-21T14:21:16.784Z,62.97
2019-02-21T14:23:46.489Z,70.83
2019-02-21T14:26:15.648Z,80.60
2019-02-21T14:28:44.618Z,87.50
2019-02-21T14:31:13.634Z,74.83
2019-02-21T14:33:42.968Z,80.23
2019-02-21T14:36:15.909Z,74.37
2019-02-21T14:38:42.603Z,67.40
2019-02-21T14:41:11.647Z,73.10
2019-02-21T14:43:41.257Z,60.27
2019-02-21T14:46:10.319Z,58.47
2019-02-21T14:48:39.407Z,66.73
2019-02-21T14:51:08.488Z,59.00
2019-02-21T14:53:37.439Z,69.20
2019-02-21T14:56:06.528Z,65.97
2019-02-21T14:58:35.529Z,58.73
2019-02-21T15:01:06.131Z,65.73
2019-02-21T15:03:35.096Z,55.07
2019-02-21T15:06:04.429Z,64.60
2019-02-21T15:08:33.523Z,56.20
2019-02-21T15:11:02.574Z,51.67
2019-02-21T15:13:31.652Z,62.87
2019-02-21T15:16:00.647Z,64.70
2019-02-21T15:18:30.194Z,54.43
2019-02-21T15:20:59.335Z,58.87
2019-02-21T15:23:28.327Z,62.37
2019-02-21T15:25:57.270Z,50.67
2019-02-21T15:28:26.354Z,59.07
2019-02-21T15:30:55.383Z,57.83
2019-02-21T15:33:24.273Z,57.23
2019-02-21T15:35:53.283Z,46.87
2019-02-21T15:38:22.200Z,60.93
2019-02-21T15:40:51.294Z,50.87
2019-02-21T15:43:20.350Z,59.20
2019-02-21T15:45:50.260Z,63.93
2019-02-21T15:48:19.360Z,51.50
2019-02-21T15:50:48.458Z,62.70
2019-02-21T15:53:17.444Z,48.77
2019-02-21T15:55:46.637Z,58.17
2019-02-21T15:58:15.691Z,48.83
2019-02-21T16:00:44.743Z,54.03
2019-02-21T16:03:13.723Z,47.70
2019-02-21T16:05:42.679Z,40.23
2019-02-21T16:08:11.648Z,47.17
2019-02-21T16:10:40.713Z,52.13
2019-02-21T16:13:10.276Z,47.47
2019-02-21T16:15:39.749Z,52.23
2019-02-21T16:18:08.735Z,50.33
2019-02-21T16:20:37.738Z,38.27
2019-02-21T16:23:06.799Z,39.93
2019-02-21T16:25:35.779Z,30.63
2019-02-21T16:28:04.775Z,45.93
2019-02-21T16:30:33.855Z,45.53
2019-02-21T16:33:02.888Z,41.50
2019-02-21T16:35:31.975Z,47.30
2019-02-21T16:38:01.027Z,36.60
2019-02-21T16:40:30.151Z,42.27
2019-02-21T16:42:59.206Z,42.90
2019-02-21T16:45:42.213Z,36.83
2019-02-21T16:47:59.007Z,38.40
2019-02-21T16:50:30.084Z,27.50
2019-02-21T16:52:58.828Z,46.17
2019-02-21T16:55:27.920Z,43.60
2019-02-21T16:57:57.009Z,45.00
2019-02-21T17:00:38.706Z,47.13
2019-02-21T17:02:57.198Z,38.80
2019-02-21T17:05:26.201Z,40.23
2019-02-21T17:07:55.286Z,43.83
2019-02-21T17:10:24.431Z,42.07
2019-02-21T17:12:55.115Z,42.53
2019-02-21T17:15:24.237Z,38.87
2019-02-21T17:17:53.297Z,46.40
2019-02-21T17:20:22.455Z,41.43
2019-02-21T17:22:51.591Z,36.37
2019-02-21T17:25:20.655Z,46.23
2019-02-21T17:27:50.020Z,41.13
2019-02-21T17:30:19.235Z,47.33
2019-02-21T17:32:48.368Z,41.43
2019-02-21T17:35:17.427Z,47.40
2019-02-21T17:37:46.540Z,43.00
2019-02-21T17:40:17.468Z,43.87
2019-02-21T17:42:46.605Z,39.30
2019-02-21T17:45:15.639Z,40.10
2019-02-21T17:47:44.756Z,44.93
2019-02-21T17:50:14.017Z,41.47
2019-02-21T17:52:43.112Z,41.47
2019-02-21T17:55:12.313Z,36.73
2019-02-21T17:57:41.429Z,38.73
2019-02-21T18:00:13.667Z,37.10
2019-02-21T18:02:42.748Z,35.33
2019-02-21T18:05:11.840Z,40.93
2019-02-21T18:07:40.899Z,39.07
2019-02-21T18:10:12.016Z,40.37
2019-02-21T18:12:41.187Z,34.60
2019-02-21T18:15:10.540Z,32.50
2019-02-21T18:17:39.655Z,41.97
2019-02-21T18:20:09.776Z,40.97
2019-02-21T18:22:38.869Z,31.97
2019-02-21T18:25:11.194Z,47.03
2019-02-21T18:27:40.363Z,39.90
2019-02-21T18:30:11.183Z,35.70
2019-02-21T18:32:40.279Z,34.87
2019-02-21T18:35:09.537Z,35.50
2019-02-21T18:37:47.047Z,38.23
2019-02-21T18:40:17.631Z,38.57
2019-02-21T18:42:42.469Z,37.97
2019-02-21T18:45:11.569Z,32.37
2019-02-21T18:47:40.623Z,25.10
2019-02-21T18:50:10.039Z,44.90
2019-02-21T18:52:39.115Z,33.87
2019-02-21T18:55:08.419Z,39.53
2019-02-21T18:57:37.476Z,42.10
2019-02-21T19:00:08.481Z,35.60
2019-02-21T19:02:37.591Z,35.70
2019-02-21T19:05:07.040Z,37.63
2019-02-21T19:07:36.123Z,36.87
2019-02-21T19:10:06.032Z,33.23
2019-02-21T19:12:35.181Z,39.97
2019-02-21T19:15:04.351Z,33.27
2019-02-21T19:17:35.720Z,37.43
2019-02-21T19:20:05.111Z,34.00
2019-02-21T19:22:34.298Z,39.80
2019-02-21T19:25:03.315Z,35.97
2019-02-21T19:27:37.164Z,33.07
2019-02-21T19:30:03.160Z,35.70
2019-02-21T19:32:32.142Z,37.10
2019-02-21T19:35:01.152Z,34.40
2019-02-21T19:37:30.372Z,36.43
2019-02-21T19:39:59.615Z,31.97
2019-02-21T19:42:28.700Z,35.20
2019-02-21T19:44:57.896Z,35.03
2019-02-21T19:47:26.985Z,41.17
2019-02-21T19:49:56.020Z,34.93
2019-02-21T19:52:25.016Z,39.83
2019-02-21T19:54:54.163Z,34.67
2019-02-21T19:57:23.247Z,34.63
2019-02-21T19:59:52.208Z,34.17
2019-02-21T20:02:21.287Z,39.73
2019-02-21T20:04:50.363Z,42.27
2019-02-21T20:07:19.451Z,35.83
2019-02-21T20:09:48.637Z,38.77
2019-02-21T20:12:17.772Z,41.93
2019-02-21T20:14:46.795Z,36.07
2019-02-21T20:17:15.863Z,40.50
2019-02-21T20:19:44.883Z,36.30
2019-02-21T20:22:13.960Z,38.33
2019-02-21T20:24:42.957Z,32.20
2019-02-21T20:27:12.039Z,43.07
2019-02-21T20:29:41.112Z,36.70
2019-02-21T20:32:10.126Z,40.70
2019-02-21T20:34:39.204Z,36.63
2019-02-21T20:37:08.185Z,37.03
2019-02-21T20:39:37.263Z,42.80
2019-02-21T20:42:06.353Z,35.03
2019-02-21T20:44:35.401Z,39.40
2019-02-21T20:47:04.464Z,44.33
2019-02-21T20:49:33.487Z,35.60
2019-02-21T20:52:02.635Z,41.80
2019-02-21T20:54:31.716Z,36.77
2019-02-21T20:57:00.836Z,43.40
2019-02-21T20:59:29.863Z,36.40
2019-02-21T21:01:58.991Z,39.00
2019-02-21T21:04:28.099Z,30.77
2019-02-21T21:06:57.209Z,46.63
2019-02-21T21:09:26.219Z,41.90
2019-02-21T21:11:55.254Z,36.90
2019-02-21T21:14:24.299Z,34.23
2019-02-21T21:16:53.324Z,44.83
2019-02-21T21:19:22.376Z,35.77
2019-02-21T21:21:51.444Z,34.90
2019-02-21T21:24:20.431Z,37.07
2019-02-21T21:26:49.432Z,40.40
2019-02-21T21:29:18.439Z,35.37
2019-02-21T21:31:47.500Z,40.37
2019-02-21T21:34:16.512Z,34.73
2019-02-21T21:36:45.560Z,39.50
2019-02-21T21:39:15.243Z,35.70
2019-02-21T21:41:44.308Z,33.93
2019-02-21T21:44:13.187Z,39.57
2019-02-21T21:46:42.342Z,40.20
2019-02-21T21:49:11.412Z,35.87
2019-02-21T21:51:40.412Z,41.70
2019-02-21T21:54:09.489Z,37.27
2019-02-21T21:56:38.645Z,34.60
2019-02-21T21:59:07.776Z,39.13
2019-02-21T22:01:36.888Z,38.07
2019-02-21T22:04:06.032Z,37.70
2019-02-21T22:06:35.064Z,38.17
2019-02-21T22:09:05.219Z,33.80
2019-02-21T22:11:34.560Z,37.30
2019-02-21T22:14:03.704Z,35.90
2019-02-21T22:16:32.772Z,34.67
2019-02-21T22:19:01.755Z,36.30
2019-02-21T22:21:31.132Z,42.63
2019-02-21T22:24:00.194Z,36.80
2019-02-21T22:26:29.367Z,34.27
2019-02-21T22:28:58.399Z,36.67
2019-02-21T22:31:27.290Z,39.77
2019-02-21T22:33:56.303Z,41.17
2019-02-21T22:36:25.380Z,34.43
2019-02-21T22:38:54.371Z,43.13
2019-02-21T22:41:23.448Z,38.03
2019-02-21T22:43:52.459Z,41.57
2019-02-21T22:46:21.496Z,44.30
2019-02-21T22:48:50.683Z,40.73
2019-02-21T22:51:19.759Z,37.70
2019-02-21T22:53:48.771Z,35.50
2019-02-21T22:56:17.955Z,37.83
2019-02-21T22:58:47.109Z,44.50
2019-02-21T23:01:25.114Z,37.87
2019-02-21T23:04:25.818Z,36.33
2019-02-21T23:06:59.058Z,32.50
2019-02-21T23:09:28.447Z,36.77
2019-02-21T23:11:57.702Z,37.57
2019-02-21T23:14:26.821Z,39.97
2019-02-21T23:16:56.034Z,38.10
2019-02-21T23:19:25.120Z,36.00
2019-02-21T23:21:54.243Z,39.17
2019-02-21T23:24:23.345Z,38.10
2019-02-21T23:26:52.452Z,43.23
2019-02-21T23:29:21.547Z,40.93
2019-02-21T23:31:50.602Z,36.07
2019-02-21T23:34:30.227Z,40.97
2019-02-21T23:36:59.337Z,42.97
2019-02-21T23:39:37.781Z,42.43
2019-02-21T23:41:59.234Z,49.70
2019-02-21T23:44:28.477Z,48.23
2019-02-21T23:46:57.547Z,48.53
2019-02-21T23:49:26.668Z,44.17
2019-02-21T23:51:55.664Z,50.13
2019-02-21T23:54:24.700Z,46.63
2019-02-21T23:56:53.696Z,46.53
2019-02-21T23:59:22.763Z,47.33
